Time;durP1;ratioP1;P1;durP2;ratioP2;P2;SDS_P1;SDS_P2;PMS_P1;PMS_P2;Temp;Humidity;BMP_temperature;BMP_pressure;BME280_temperature;BME280_humidity;BME280_pressure;Samples;Min_cycle;Max_cycle;Signal;HPM_P1;HPM_P2
2021/08/07 00:00:18;;;;;;;;;;;;;;;16.38;100.00;97061.56;5076272;28;20498;-79
2021/08/07 00:02:45;;;;;;;;;;;;;;;16.40;100.00;97070.28;5074992;28;19931;-79
2021/08/07 00:05:12;;;;;;;;;;;;;;;15.86;100.00;97066.78;5075207;28;19925;-80
2021/08/07 00:07:39;;;;;;;;;;;;;;;16.29;100.00;97062.59;5076215;28;19925;-79
2021/08/07 00:10:07;;;;;;;;;;;;;;;16.23;100.00;97068.22;5076116;28;19924;-80
2021/08/07 00:12:35;;;;;;;;;;;;;;;16.00;100.00;97072.25;5058441;28;19924;-80
2021/08/07 00:15:02;;;;;;;;;;;;;;;16.19;100.00;97066.91;5076143;28;19928;-80
2021/08/07 00:17:29;;;;;;;;;;;;;;;16.25;100.00;97070.53;5076227;28;20015;-79
2021/08/07 00:19:56;;;;;;;;;;;;;;;16.33;100.00;97070.78;5074684;28;19924;-80
2021/08/07 00:22:24;;;;;;;;;;;;;;;16.22;100.00;97072.28;5054634;28;19932;-78
2021/08/07 00:24:51;;;;;;;;;;;;;;;16.43;100.00;97069.25;5072070;28;19928;-78
2021/08/07 00:27:18;;;;;;;;;;;;;;;16.14;100.00;97071.25;5108001;28;20048;-79
2021/08/07 00:29:53;;;;;;;;;;;;;;;16.21;100.00;97064.34;5075768;28;19931;-79
2021/08/07 00:32:20;;;;;;;;;;;;;;;15.82;100.00;97060.66;5075898;28;20395;-80
2021/08/07 00:34:48;;;;;;;;;;;;;;;15.55;100.00;97070.53;5074418;28;19931;-79
2021/08/07 00:37:16;;;;;;;;;;;;;;;16.14;100.00;97065.63;5054429;28;20311;-80
2021/08/07 00:39:53;;;;;;;;;;;;;;;16.27;100.00;97060.28;5056053;28;19983;-80
2021/08/07 00:42:21;;;;;;;;;;;;;;;16.06;100.00;97075.06;5074464;28;19925;-80
2021/08/07 00:44:50;;;;;;;;;;;;;;;16.15;100.00;97072.78;5074579;28;19925;-80
2021/08/07 00:47:17;;;;;;;;;;;;;;;16.09;100.00;97059.97;5094156;28;19956;-79
2021/08/07 00:49:47;;;;;;;;;;;;;;;16.13;100.00;97052.03;5054322;28;19925;-79
2021/08/07 00:52:17;;;;;;;;;;;;;;;15.67;100.00;97058.03;5074292;28;20253;-80
2021/08/07 00:54:48;;;;;;;;;;;;;;;15.85;100.00;97051.19;5074181;28;20296;-80
2021/08/07 00:57:17;;;;;;;;;;;;;;;16.12;100.00;97056.91;5090132;28;20296;-79
2021/08/07 00:59:44;;;;;;;;;;;;;;;16.11;100.00;97043.34;5073981;28;19974;-80
2021/08/07 01:02:15;;;;;;;;;;;;;;;15.82;100.00;97050.16;5093885;28;19928;-79
2021/08/07 01:05:00;;;;;;;;;;;;;;;15.80;100.00;97057.56;5059966;28;19924;-80
2021/08/07 01:07:40;;;;;;;;;;;;;;;15.74;100.00;97051.13;5072912;28;19925;-79
2021/08/07 01:10:16;;;;;;;;;;;;;;;15.84;100.00;97047.59;5073740;28;19989;-79
2021/08/07 01:12:55;;;;;;;;;;;;;;;15.84;100.00;97050.41;5073132;28;20011;-78
2021/08/07 01:15:26;;;;;;;;;;;;;;;16.14;100.00;97051.53;5072973;28;20261;-78
2021/08/07 01:17:58;;;;;;;;;;;;;;;15.96;100.00;97042.78;5107146;28;20383;-79
2021/08/07 01:20:28;;;;;;;;;;;;;;;15.91;100.00;97047.13;5073793;28;19947;-79
2021/08/07 01:22:58;;;;;;;;;;;;;;;16.03;100.00;97037.44;5073981;28;20062;-79
2021/08/07 01:25:30;;;;;;;;;;;;;;;15.59;100.00;97045.72;5053910;28;19925;-80
2021/08/07 01:28:00;;;;;;;;;;;;;;;15.76;100.00;97040.91;5102546;28;20375;-80
2021/08/07 01:30:32;;;;;;;;;;;;;;;15.91;100.00;97046.34;5073765;28;19942;-79
2021/08/07 01:33:05;;;;;;;;;;;;;;;16.02;100.00;97043.56;5059619;28;19932;-80
2021/08/07 01:36:09;;;;;;;;;;;;;;;16.41;100.00;97032.34;5074335;28;19974;-79
2021/08/07 01:38:55;;;;;;;;;;;;;;;16.10;100.00;97034.09;5078051;28;19924;-79
2021/08/07 01:41:23;;;;;;;;;;;;;;;16.28;100.00;97032.88;5073438;28;19924;-79
2021/08/07 01:44:07;;;;;;;;;;;;;;;16.58;100.00;97030.34;5094993;28;20013;-80
2021/08/07 01:46:53;;;;;;;;;;;;;;;16.27;100.00;97029.28;5073272;28;20447;-80
2021/08/07 01:49:31;;;;;;;;;;;;;;;16.48;100.00;97020.63;5073284;28;20270;-79
2021/08/07 01:52:03;;;;;;;;;;;;;;;16.36;100.00;97028.25;5073329;28;20444;-80
2021/08/07 01:54:44;;;;;;;;;;;;;;;16.35;100.00;97023.13;5073126;28;20383;-79
2021/08/07 01:57:12;;;;;;;;;;;;;;;16.58;100.00;97021.91;5073089;28;19970;-79
2021/08/07 01:59:44;;;;;;;;;;;;;;;16.45;100.00;97024.47;5056895;28;20367;-80
2021/08/07 02:02:12;;;;;;;;;;;;;;;15.72;100.00;97017.09;5055997;28;20383;-80
2021/08/07 02:04:45;;;;;;;;;;;;;;;16.45;100.00;97019.59;5069932;28;19931;-80
2021/08/07 02:07:20;;;;;;;;;;;;;;;15.86;100.00;97014.06;5083260;28;20317;-80
2021/08/07 02:09:54;;;;;;;;;;;;;;;16.41;100.00;97018.28;5072972;28;19924;-80
2021/08/07 02:12:21;;;;;;;;;;;;;;;16.48;100.00;97009.34;5073224;28;19925;-80
2021/08/07 02:14:53;;;;;;;;;;;;;;;16.61;100.00;97007.56;5056550;28;19925;-80
2021/08/07 02:17:21;;;;;;;;;;;;;;;16.06;100.00;97008.25;5089660;28;19924;-80
2021/08/07 02:19:50;;;;;;;;;;;;;;;16.81;100.00;97007.28;5072937;28;19928;-80
2021/08/07 02:22:19;;;;;;;;;;;;;;;16.98;100.00;97010.09;5052873;28;19924;-80
2021/08/07 02:24:48;;;;;;;;;;;;;;;16.95;100.00;97002.66;5055770;28;20331;-80
2021/08/07 02:27:35;;;;;;;;;;;;;;;16.85;100.00;97004.19;5089681;28;19925;-79
2021/08/07 02:30:03;;;;;;;;;;;;;;;16.60;100.00;96999.63;5089547;28;19924;-80
2021/08/07 02:32:36;;;;;;;;;;;;;;;16.60;100.00;96993.97;5072682;28;19938;-79
2021/08/07 02:35:06;;;;;;;;;;;;;;;15.96;100.00;97006.91;5072799;28;19924;-80
2021/08/07 02:37:34;;;;;;;;;;;;;;;16.48;100.00;96998.09;5072662;28;19928;-80
2021/08/07 02:40:06;;;;;;;;;;;;;;;16.47;100.00;97007.78;5106374;28;20058;-80
2021/08/07 02:42:38;;;;;;;;;;;;;;;16.19;100.00;96997.25;5056178;28;20394;-80
2021/08/07 02:45:07;;;;;;;;;;;;;;;16.28;100.00;96993.44;5072464;28;19924;-80
2021/08/07 02:47:35;;;;;;;;;;;;;;;16.38;100.00;96997.53;5072872;28;19925;-80
2021/08/07 02:50:05;;;;;;;;;;;;;;;16.22;100.00;96987.78;5072618;28;19924;-80
2021/08/07 02:52:33;;;;;;;;;;;;;;;16.06;100.00;96985.72;5105884;28;19924;-80
2021/08/07 02:55:05;;;;;;;;;;;;;;;16.45;100.00;96996.28;5072541;28;19974;-80
2021/08/07 02:57:32;;;;;;;;;;;;;;;15.81;100.00;96992.28;5072719;28;19931;-80
2021/08/07 03:00:01;;;;;;;;;;;;;;;16.40;100.00;96992.16;5089513;28;19924;-80
2021/08/07 03:02:29;;;;;;;;;;;;;;;16.43;100.00;96985.50;5072349;28;19924;-80
2021/08/07 03:04:58;;;;;;;;;;;;;;;16.01;100.00;96969.56;5071116;28;19924;-80
2021/08/07 03:07:26;;;;;;;;;;;;;;;16.01;100.00;96974.41;5073499;28;19925;-80
2021/08/07 03:09:53;;;;;;;;;;;;;;;16.01;100.00;96974.41;5072328;28;19924;-80
2021/08/07 03:12:20;;;;;;;;;;;;;;;16.42;100.00;96972.66;5072517;28;19928;-79
2021/08/07 03:14:47;;;;;;;;;;;;;;;15.86;100.00;96965.44;5089179;28;19967;-79
2021/08/07 03:17:14;;;;;;;;;;;;;;;15.58;100.00;96965.38;5072333;28;19929;-80
2021/08/07 03:19:45;;;;;;;;;;;;;;;15.48;100.00;96958.41;5072627;28;19931;-79
2021/08/07 03:22:16;;;;;;;;;;;;;;;15.92;100.00;96964.16;5072246;28;19925;-80
2021/08/07 03:24:45;;;;;;;;;;;;;;;15.74;100.00;96959.00;5052969;28;19931;-80
2021/08/07 03:27:13;;;;;;;;;;;;;;;16.22;100.00;96958.84;5072584;28;19924;-80
2021/08/07 03:29:46;;;;;;;;;;;;;;;16.21;100.00;96962.94;5073654;28;19933;-80
2021/08/07 03:32:17;;;;;;;;;;;;;;;16.18;100.00;96961.91;5076123;28;19931;-80
2021/08/07 03:34:44;;;;;;;;;;;;;;;16.50;100.00;96941.94;5076059;28;19932;-80
2021/08/07 03:37:13;;;;;;;;;;;;;;;16.06;100.00;96940.66;5075677;28;20367;-80
2021/08/07 03:39:50;;;;;;;;;;;;;;;15.87;100.00;96942.38;5094250;28;19932;-80
2021/08/07 03:42:17;;;;;;;;;;;;;;;15.73;100.00;96954.66;5075596;28;19924;-80
2021/08/07 03:44:44;;;;;;;;;;;;;;;16.11;100.00;96953.94;5075430;28;19967;-80
2021/08/07 03:47:14;;;;;;;;;;;;;;;15.41;100.00;96953.28;5075893;28;20023;-77
2021/08/07 03:49:44;;;;;;;;;;;;;;;16.12;100.00;96941.41;5075440;28;20019;-79
2021/08/07 03:52:11;;;;;;;;;;;;;;;15.86;100.00;96952.13;5058718;28;19948;-79
2021/08/07 03:54:40;;;;;;;;;;;;;;;15.38;100.00;96948.66;5075434;28;19928;-79
2021/08/07 03:57:08;;;;;;;;;;;;;;;15.76;100.00;96941.59;5075272;28;19931;-80
2021/08/07 03:59:35;;;;;;;;;;;;;;;15.36;100.00;96937.09;5075455;28;19928;-80
2021/08/07 04:02:03;;;;;;;;;;;;;;;15.26;100.00;96949.88;5058736;28;19924;-79
2021/08/07 04:04:30;;;;;;;;;;;;;;;15.29;100.00;96945.25;5075355;28;20023;-80
2021/08/07 04:06:57;;;;;;;;;;;;;;;15.39;100.00;96943.78;5075573;28;19924;-80
2021/08/07 04:09:33;;;;;;;;;;;;;;;15.50;100.00;96947.44;5092209;28;19924;-80
2021/08/07 04:12:00;;;;;;;;;;;;;;;15.57;100.00;96944.13;5075063;28;19924;-80
2021/08/07 04:14:30;;;;;;;;;;;;;;;15.67;100.00;96953.88;5074925;28;19929;-79
2021/08/07 04:16:57;;;;;;;;;;;;;;;15.70;100.00;96941.59;5076412;28;19931;-80
2021/08/07 04:19:27;;;;;;;;;;;;;;;15.79;100.00;96949.03;5074743;28;19928;-79
2021/08/07 04:22:02;;;;;;;;;;;;;;;16.09;100.00;96938.84;5075105;28;20395;-79
2021/08/07 04:24:35;;;;;;;;;;;;;;;15.80;100.00;96939.31;5075189;28;20011;-79
2021/08/07 04:27:03;;;;;;;;;;;;;;;15.29;100.00;96934.78;5074907;28;19924;-80
2021/08/07 04:29:31;;;;;;;;;;;;;;;15.89;100.00;96936.25;5058067;28;19928;-80
2021/08/07 04:31:59;;;;;;;;;;;;;;;15.51;100.00;96934.88;5074870;28;20295;-80
2021/08/07 04:34:26;;;;;;;;;;;;;;;15.38;100.00;96937.41;5074592;28;20368;-80
2021/08/07 04:36:54;;;;;;;;;;;;;;;15.17;100.00;96944.47;5074814;28;19959;-79
2021/08/07 04:39:23;;;;;;;;;;;;;;;15.25;100.00;96934.25;5054540;28;19925;-79
2021/08/07 04:41:54;;;;;;;;;;;;;;;15.60;100.00;96931.84;5106713;28;20445;-80
2021/08/07 04:44:21;;;;;;;;;;;;;;;15.63;100.00;96928.00;5054382;28;19929;-80
2021/08/07 04:46:48;;;;;;;;;;;;;;;15.50;100.00;96926.94;5057634;28;19924;-79
2021/08/07 04:49:15;;;;;;;;;;;;;;;15.72;100.00;96922.13;5057537;28;20422;-79
2021/08/07 04:51:42;;;;;;;;;;;;;;;15.93;100.00;96925.53;5074306;28;19926;-79
2021/08/07 04:54:12;;;;;;;;;;;;;;;15.62;100.00;96918.03;5075487;28;19931;-79
2021/08/07 04:56:42;;;;;;;;;;;;;;;15.61;100.00;96922.13;5054327;28;19929;-79
2021/08/07 04:59:10;;;;;;;;;;;;;;;15.69;100.00;96920.34;5067306;28;19991;-79
2021/08/07 05:01:38;;;;;;;;;;;;;;;15.29;100.00;96926.34;5055630;28;19960;-79
2021/08/07 05:04:06;;;;;;;;;;;;;;;15.37;100.00;96918.19;5073310;28;19959;-79
2021/08/07 05:06:33;;;;;;;;;;;;;;;15.58;100.00;96916.75;5074519;28;19931;-79
2021/08/07 05:09:00;;;;;;;;;;;;;;;15.68;100.00;96916.00;5073778;28;19928;-79
2021/08/07 05:11:32;;;;;;;;;;;;;;;15.65;100.00;96922.66;5073855;28;20033;-79
2021/08/07 05:14:01;;;;;;;;;;;;;;;15.53;100.00;96921.09;5090542;28;19928;-78
2021/08/07 05:16:28;;;;;;;;;;;;;;;15.73;100.00;96925.75;5057033;28;19924;-80
2021/08/07 05:18:55;;;;;;;;;;;;;;;15.15;100.00;96930.13;5053904;28;20281;-80
2021/08/07 05:21:24;;;;;;;;;;;;;;;14.99;100.00;96922.38;5058085;28;19931;-80
2021/08/07 05:24:22;;;;;;;;;;;;;;;14.72;100.00;96917.38;5038051;28;19925;-80
2021/08/07 05:26:49;;;;;;;;;;;;;;;15.53;100.00;96911.88;5093831;28;19931;-80
2021/08/07 05:29:19;;;;;;;;;;;;;;;15.51;100.00;96915.19;5063627;28;19925;-80
2021/08/07 05:32:13;;;;;;;;;;;;;;;15.29;100.00;96917.91;5057178;28;20019;-80
2021/08/07 05:34:41;;;;;;;;;;;;;;;15.41;100.00;96913.88;5053904;28;20023;-80
2021/08/07 05:37:08;;;;;;;;;;;;;;;15.25;100.00;96920.19;5057215;28;19924;-80
2021/08/07 05:39:36;;;;;;;;;;;;;;;15.84;100.00;96923.69;5053704;28;19925;-80
2021/08/07 05:42:03;;;;;;;;;;;;;;;15.75;100.00;96921.13;5059653;28;19931;-80
2021/08/07 05:44:31;;;;;;;;;;;;;;;15.13;100.00;96910.16;5053832;28;20022;-80
2021/08/07 05:46:58;;;;;;;;;;;;;;;14.73;100.00;96916.09;5051740;28;19925;-80
2021/08/07 05:49:25;;;;;;;;;;;;;;;15.10;100.00;96916.78;5053466;28;19970;-80
2021/08/07 05:51:52;;;;;;;;;;;;;;;15.66;100.00;96912.91;5052915;28;21414;-80
2021/08/07 05:54:22;;;;;;;;;;;;;;;15.15;100.00;96913.25;5044892;28;20322;-80
2021/08/07 05:56:49;;;;;;;;;;;;;;;15.04;100.00;96910.38;5034886;28;19925;-80
2021/08/07 05:59:17;;;;;;;;;;;;;;;15.49;100.00;96912.13;5036510;28;20031;-80
2021/08/07 06:01:45;;;;;;;;;;;;;;;14.80;100.00;96912.81;5053034;28;19947;-80
2021/08/07 06:04:12;;;;;;;;;;;;;;;15.11;100.00;96907.09;5052782;28;19940;-80
2021/08/07 06:06:39;;;;;;;;;;;;;;;15.36;100.00;96908.97;5053064;28;19932;-80
2021/08/07 06:09:06;;;;;;;;;;;;;;;15.70;100.00;96910.66;5052661;28;19932;-80
2021/08/07 06:11:34;;;;;;;;;;;;;;;15.51;100.00;96903.19;5033103;28;19925;-80
2021/08/07 06:14:03;;;;;;;;;;;;;;;15.34;100.00;96894.63;5049766;28;20026;-80
2021/08/07 06:16:31;;;;;;;;;;;;;;;15.34;100.00;96905.13;5053072;28;19939;-80
2021/08/07 06:19:01;;;;;;;;;;;;;;;15.88;100.00;96896.06;5052701;28;19928;-80
2021/08/07 06:21:29;;;;;;;;;;;;;;;15.78;100.00;96894.75;5051138;28;19925;-80
2021/08/07 06:23:58;;;;;;;;;;;;;;;15.89;100.00;96891.97;5043750;28;20016;-80
2021/08/07 06:26:29;;;;;;;;;;;;;;;16.41;100.00;96903.50;5052690;28;19979;-80
2021/08/07 06:28:59;;;;;;;;;;;;;;;16.74;100.00;96891.41;5053017;28;20364;-80
2021/08/07 06:31:26;;;;;;;;;;;;;;;16.32;100.00;96889.69;5016307;28;20011;-80
2021/08/07 06:33:54;;;;;;;;;;;;;;;15.91;100.00;96886.59;5047110;28;19931;-81
2021/08/07 06:36:21;;;;;;;;;;;;;;;16.51;100.00;96884.31;5045864;28;19948;-80
2021/08/07 06:38:48;;;;;;;;;;;;;;;15.98;100.00;96876.88;5052153;28;20384;-79
2021/08/07 06:41:16;;;;;;;;;;;;;;;15.78;100.00;96872.25;5052643;28;19972;-79
2021/08/07 06:44:05;;;;;;;;;;;;;;;16.17;100.00;96870.22;5064108;28;19992;-80
2021/08/07 06:46:35;;;;;;;;;;;;;;;16.54;100.00;96872.00;5072560;28;20362;-80
2021/08/07 06:49:05;;;;;;;;;;;;;;;16.47;100.00;96873.28;5072601;28;20444;-80
2021/08/07 06:51:32;;;;;;;;;;;;;;;16.45;100.00;96872.28;5072199;28;19924;-80
2021/08/07 06:54:03;;;;;;;;;;;;;;;15.80;100.00;96878.16;5072427;28;19924;-80
2021/08/07 06:56:32;;;;;;;;;;;;;;;16.88;100.00;96873.44;5055890;28;19929;-80
2021/08/07 06:59:01;;;;;;;;;;;;;;;16.04;100.00;96869.97;5089133;28;19932;-79
2021/08/07 07:01:29;;;;;;;;;;;;;;;16.70;100.00;96876.84;5056948;28;19931;-79
2021/08/07 07:03:57;;;;;;;;;;;;;;;16.77;100.00;96873.47;5054032;28;20334;-80
2021/08/07 07:06:24;;;;;;;;;;;;;;;16.27;100.00;96871.50;5060312;28;19932;-80
2021/08/07 07:08:52;;;;;;;;;;;;;;;17.01;100.00;96868.03;5075826;28;19929;-80
2021/08/07 07:11:19;;;;;;;;;;;;;;;16.86;100.00;96867.53;5071545;28;19924;-80
2021/08/07 07:13:48;;;;;;;;;;;;;;;16.86;100.00;96870.38;5064116;28;19971;-80
2021/08/07 07:16:16;;;;;;;;;;;;;;;16.82;100.00;96869.88;5035627;28;19977;-79
2021/08/07 07:18:43;;;;;;;;;;;;;;;17.21;100.00;96862.81;5066176;28;19925;-79
2021/08/07 07:21:10;;;;;;;;;;;;;;;17.09;100.00;96871.81;5076119;28;20372;-79
2021/08/07 07:23:37;;;;;;;;;;;;;;;17.05;100.00;96863.66;5076251;28;20018;-80
2021/08/07 07:26:04;;;;;;;;;;;;;;;17.52;100.00;96858.81;5076052;28;19932;-80
2021/08/07 07:28:34;;;;;;;;;;;;;;;17.11;100.00;96874.91;5073487;28;19931;-80
2021/08/07 07:31:01;;;;;;;;;;;;;;;16.65;100.00;96869.16;5075608;28;19967;-79
2021/08/07 07:33:29;;;;;;;;;;;;;;;16.98;100.00;96878.28;5059738;28;20421;-79
2021/08/07 07:35:58;;;;;;;;;;;;;;;16.48;100.00;96879.72;5075623;28;19932;-80
2021/08/07 07:38:25;;;;;;;;;;;;;;;17.21;100.00;96873.31;5062355;28;20020;-81
2021/08/07 07:40:54;;;;;;;;;;;;;;;16.56;100.00;96881.47;5068109;28;19932;-81
2021/08/07 07:43:26;;;;;;;;;;;;;;;17.27;100.00;96876.88;5092074;28;19970;-81
2021/08/07 07:45:54;;;;;;;;;;;;;;;17.35;100.00;96877.88;5056474;28;20291;-81
2021/08/07 07:48:23;;;;;;;;;;;;;;;17.52;100.00;96884.97;5059270;28;20013;-81
2021/08/07 07:50:50;;;;;;;;;;;;;;;16.31;100.00;96870.47;5096100;28;19925;-80
2021/08/07 07:53:19;;;;;;;;;;;;;;;17.19;100.00;96870.25;5069208;28;19932;-80
2021/08/07 07:55:46;;;;;;;;;;;;;;;17.42;100.00;96863.19;5069037;28;19924;-81
2021/08/07 07:58:14;;;;;;;;;;;;;;;17.49;100.00;96874.72;5075263;28;20405;-81
2021/08/07 08:00:42;;;;;;;;;;;;;;;17.84;100.00;96876.84;5098971;28;19959;-80
2021/08/07 08:03:10;;;;;;;;;;;;;;;18.19;100.00;96862.69;5064265;28;20279;-81
2021/08/07 08:05:41;;;;;;;;;;;;;;;18.73;100.00;96857.84;5066553;28;19931;-81
2021/08/07 08:08:09;;;;;;;;;;;;;;;18.34;100.00;96856.66;5097535;28;20449;-81
2021/08/07 08:10:38;;;;;;;;;;;;;;;18.41;100.00;96854.03;5058802;28;19936;-80
2021/08/07 08:13:10;;;;;;;;;;;;;;;18.66;100.00;96847.09;5072224;28;19931;-81
2021/08/07 08:15:40;;;;;;;;;;;;;;;17.92;100.00;96852.38;5053175;28;19994;-81
2021/08/07 08:18:09;;;;;;;;;;;;;;;18.31;100.00;96869.03;5071584;28;19925;-78
2021/08/07 08:20:38;;;;;;;;;;;;;;;18.36;100.00;96862.56;5071873;28;19950;-79
2021/08/07 08:23:06;;;;;;;;;;;;;;;18.70;100.00;96858.91;5074408;28;19928;-79
2021/08/07 08:25:33;;;;;;;;;;;;;;;18.29;100.00;96858.25;5074249;28;19931;-79
2021/08/07 08:28:00;;;;;;;;;;;;;;;18.95;100.00;96856.81;5075731;28;19928;-79
2021/08/07 08:30:28;;;;;;;;;;;;;;;19.20;100.00;96855.50;5044440;28;19967;-79
2021/08/07 08:32:55;;;;;;;;;;;;;;;19.71;100.00;96851.47;5076903;28;19925;-79
2021/08/07 08:35:23;;;;;;;;;;;;;;;19.59;100.00;96848.03;5057663;28;19925;-79
2021/08/07 08:37:51;;;;;;;;;;;;;;;20.45;100.00;96837.13;5054965;28;19932;-79
2021/08/07 08:40:19;;;;;;;;;;;;;;;20.49;100.00;96839.66;5074175;28;19925;-79
2021/08/07 08:42:47;;;;;;;;;;;;;;;20.60;100.00;96837.38;5090947;28;19930;-80
2021/08/07 08:45:14;;;;;;;;;;;;;;;20.72;100.00;96832.28;5038112;28;19925;-80
2021/08/07 08:47:42;;;;;;;;;;;;;;;20.68;100.00;96826.16;5079362;28;19936;-79
2021/08/07 08:50:11;;;;;;;;;;;;;;;20.29;100.00;96826.88;5073817;28;19924;-80
2021/08/07 08:52:40;;;;;;;;;;;;;;;19.58;100.00;96840.06;5073779;28;19924;-79
2021/08/07 08:55:09;;;;;;;;;;;;;;;19.53;100.00;96841.69;5073521;28;19924;-79
2021/08/07 08:57:37;;;;;;;;;;;;;;;19.55;100.00;96836.22;5073920;28;19935;-79
2021/08/07 09:00:05;;;;;;;;;;;;;;;19.07;100.00;96824.25;5053814;28;19990;-79
2021/08/07 09:02:35;;;;;;;;;;;;;;;18.24;100.00;96841.31;5100242;28;19924;-80
2021/08/07 09:05:04;;;;;;;;;;;;;;;19.00;100.00;96822.03;5073782;28;20058;-79
2021/08/07 09:07:31;;;;;;;;;;;;;;;19.39;100.00;96828.75;5053739;28;19928;-79
2021/08/07 09:09:59;;;;;;;;;;;;;;;20.06;100.00;96827.72;5056080;28;19956;-80
2021/08/07 09:12:45;;;;;;;;;;;;;;;20.11;100.00;96812.72;5073213;28;19924;-80
2021/08/07 09:15:33;;;;;;;;;;;;;;;19.40;100.00;96801.94;5085543;28;19925;-79
2021/08/07 09:18:09;;;;;;;;;;;;;;;19.50;100.00;96803.13;5072014;28;20015;-80
2021/08/07 09:20:40;;;;;;;;;;;;;;;19.77;100.00;96803.22;5073189;28;20066;-79
2021/08/07 09:23:07;;;;;;;;;;;;;;;20.28;100.00;96802.63;5072878;28;19939;-80
2021/08/07 09:25:39;;;;;;;;;;;;;;;19.57;100.00;96804.53;5084384;28;19928;-80
2021/08/07 09:28:07;;;;;;;;;;;;;;;18.67;100.00;96816.75;5069983;28;19951;-79
2021/08/07 09:30:39;;;;;;;;;;;;;;;19.78;100.00;96808.34;5072641;28;20009;-79
2021/08/07 09:33:12;;;;;;;;;;;;;;;18.03;100.00;96812.75;5072618;28;20413;-79
2021/08/07 09:35:46;;;;;;;;;;;;;;;18.36;100.00;96811.69;5072833;28;19925;-79
2021/08/07 09:38:21;;;;;;;;;;;;;;;19.58;100.00;96804.00;5056028;28;20275;-80
2021/08/07 09:41:06;;;;;;;;;;;;;;;19.14;100.00;96810.28;5067176;28;20022;-80
2021/08/07 09:43:54;;;;;;;;;;;;;;;18.92;100.00;96802.06;5086932;28;19932;-80
2021/08/07 09:46:24;;;;;;;;;;;;;;;19.09;100.00;96808.28;5073159;28;19929;-79
2021/08/07 09:49:04;;;;;;;;;;;;;;;19.35;100.00;96807.72;5038770;28;19925;-79
2021/08/07 09:51:33;;;;;;;;;;;;;;;19.98;100.00;96807.00;5053058;28;19932;-79
2021/08/07 09:54:03;;;;;;;;;;;;;;;19.31;100.00;96805.16;5070913;28;19968;-79
2021/08/07 09:56:41;;;;;;;;;;;;;;;19.52;100.00;96803.31;5072462;28;19978;-80
2021/08/07 09:59:10;;;;;;;;;;;;;;;19.60;100.00;96807.06;5073148;28;19925;-79
2021/08/07 10:01:38;;;;;;;;;;;;;;;18.34;100.00;96806.56;5059745;28;19931;-79
2021/08/07 10:04:08;;;;;;;;;;;;;;;17.30;100.00;96825.03;5066276;28;19935;-79
2021/08/07 10:06:36;;;;;;;;;;;;;;;18.95;100.00;96811.53;5063650;28;19932;-79
2021/08/07 10:09:05;;;;;;;;;;;;;;;19.66;100.00;96802.09;5037500;28;19925;-79
2021/08/07 10:11:33;;;;;;;;;;;;;;;19.61;100.00;96797.25;5058703;28;19929;-79
2021/08/07 10:14:01;;;;;;;;;;;;;;;19.62;100.00;96800.88;5071622;28;19929;-79
2021/08/07 10:17:41;;;;;;;;;;;;;;;19.96;100.00;96796.22;5089884;28;19912;-79
2021/08/07 10:20:11;;;;;;;;;;;;;;;19.92;100.00;96800.69;5088719;28;19929;-79
2021/08/07 10:22:39;;;;;;;;;;;;;;;20.26;100.00;96787.47;5088430;28;19931;-79
2021/08/07 10:25:08;;;;;;;;;;;;;;;17.87;100.00;96808.00;5088786;28;19924;-79
2021/08/07 10:27:38;;;;;;;;;;;;;;;18.74;100.00;96808.44;5072214;28;19931;-79
2021/08/07 10:30:06;;;;;;;;;;;;;;;19.31;100.00;96796.69;5088420;28;19964;-79
2021/08/07 10:32:42;;;;;;;;;;;;;;;19.41;100.00;96794.22;5071819;28;19925;-79
2021/08/07 10:35:11;;;;;;;;;;;;;;;19.18;100.00;96785.25;5088411;28;19925;-79
2021/08/07 10:37:40;;;;;;;;;;;;;;;19.39;100.00;96806.09;5071375;28;19932;-79
2021/08/07 10:40:09;;;;;;;;;;;;;;;19.85;100.00;96792.78;5088510;28;19925;-79
2021/08/07 10:42:37;;;;;;;;;;;;;;;19.08;100.00;96789.78;5088537;28;19947;-79
2021/08/07 10:45:07;;;;;;;;;;;;;;;18.57;100.00;96805.03;5088103;28;19951;-79
2021/08/07 10:47:40;;;;;;;;;;;;;;;19.13;100.00;96794.59;5071485;28;20315;-79
2021/08/07 10:50:35;;;;;;;;;;;;;;;19.82;100.00;96791.03;5088194;28;20011;-79
2021/08/07 10:53:25;;;;;;;;;;;;;;;19.82;100.00;96796.69;5088368;28;19986;-79
2021/08/07 10:55:56;;;;;;;;;;;;;;;20.23;100.00;96785.72;5080230;28;20517;-79
2021/08/07 10:58:34;;;;;;;;;;;;;;;19.01;100.00;96783.94;5083461;28;19938;-79
2021/08/07 11:01:19;;;;;;;;;;;;;;;19.18;100.00;96778.81;5089265;28;20024;-76
2021/08/07 11:03:50;;;;;;;;;;;;;;;18.77;100.00;96784.75;5089974;28;19941;-76
2021/08/07 11:06:18;;;;;;;;;;;;;;;18.61;100.00;96784.97;5089718;28;19931;-76
2021/08/07 11:08:45;;;;;;;;;;;;;;;19.51;100.00;96796.13;5089148;28;19935;-76
2021/08/07 11:11:29;;;;;;;;;;;;;;;19.75;100.00;96792.41;5074742;28;20391;-75
2021/08/07 11:14:14;;;;;;;;;;;;;;;19.38;100.00;96781.16;5068905;28;20389;-76
2021/08/07 11:16:41;;;;;;;;;;;;;;;19.38;100.00;96781.94;5069295;28;20384;-76
2021/08/07 11:19:27;;;;;;;;;;;;;;;19.31;100.00;96808.00;5087935;28;20391;-76
2021/08/07 11:21:56;;;;;;;;;;;;;;;19.10;100.00;96794.91;5081413;28;20268;-76
2021/08/07 11:24:47;;;;;;;;;;;;;;;18.92;100.00;96790.75;5067971;28;19925;-78
2021/08/07 11:27:42;;;;;;;;;;;;;;;19.30;100.00;96789.50;5062692;28;20009;-79
2021/08/07 11:30:28;;;;;;;;;;;;;;;19.00;100.00;96808.66;5049183;28;20239;-79
2021/08/07 11:35:35;;;;;;;;;;;;;;;18.72;100.00;96808.22;5067216;28;19931;-77
2021/08/07 11:38:15;;;;;;;;;;;;;;;17.94;100.00;96804.59;5059381;28;20277;-77
2021/08/07 11:40:55;;;;;;;;;;;;;;;18.44;100.00;96818.28;5055615;28;19931;-77
2021/08/07 11:43:49;;;;;;;;;;;;;;;18.01;100.00;96823.78;5029377;28;19979;-77
2021/08/07 11:46:17;;;;;;;;;;;;;;;19.15;100.00;96814.63;5055827;28;20344;-76
2021/08/07 11:48:48;;;;;;;;;;;;;;;19.06;100.00;96812.19;5055294;28;19940;-76
2021/08/07 11:51:21;;;;;;;;;;;;;;;19.04;100.00;96814.78;5088211;28;20418;-76
2021/08/07 11:53:49;;;;;;;;;;;;;;;19.14;100.00;96810.28;5055731;28;19932;-76
2021/08/07 11:56:23;;;;;;;;;;;;;;;18.47;100.00;96817.22;5054401;28;19925;-76
2021/08/07 11:58:54;;;;;;;;;;;;;;;17.93;100.00;96808.72;5057574;28;19991;-76
2021/08/07 12:01:26;;;;;;;;;;;;;;;19.05;100.00;96818.38;5055585;28;19924;-76
2021/08/07 12:03:54;;;;;;;;;;;;;;;19.29;100.00;96813.44;5059199;28;19935;-76
2021/08/07 12:06:33;;;;;;;;;;;;;;;19.31;100.00;96815.75;5058300;28;19932;-75
2021/08/07 12:09:10;;;;;;;;;;;;;;;19.47;100.00;96807.03;5071196;28;19925;-76
2021/08/07 12:11:37;;;;;;;;;;;;;;;18.32;100.00;96814.78;5066416;28;19928;-76
2021/08/07 12:14:23;;;;;;;;;;;;;;;18.90;100.00;96815.97;5060169;28;19939;-75
2021/08/07 12:16:51;;;;;;;;;;;;;;;18.59;100.00;96825.06;5064585;28;19925;-75
2021/08/07 12:19:24;;;;;;;;;;;;;;;18.65;100.00;96817.28;5050151;28;20399;-75
2021/08/07 12:21:52;;;;;;;;;;;;;;;17.97;100.00;96814.84;5055233;28;19928;-75
2021/08/07 12:24:21;;;;;;;;;;;;;;;18.13;100.00;96821.66;5055182;28;19925;-76
2021/08/07 12:26:49;;;;;;;;;;;;;;;17.80;100.00;96829.09;5041225;28;20007;-76
2021/08/07 12:29:18;;;;;;;;;;;;;;;18.37;100.00;96836.63;5054434;28;19924;-76
2021/08/07 12:31:50;;;;;;;;;;;;;;;17.38;100.00;96837.31;5073357;28;19934;-76
2021/08/07 12:34:20;;;;;;;;;;;;;;;16.72;100.00;96849.63;5074814;28;20023;-75
2021/08/07 12:37:06;;;;;;;;;;;;;;;17.53;100.00;96863.16;5073671;28;20342;-76
2021/08/07 12:39:49;;;;;;;;;;;;;;;17.35;100.00;96858.88;5073654;28;19951;-77
2021/08/07 12:42:21;;;;;;;;;;;;;;;17.77;100.00;96846.31;5074640;28;19925;-77
2021/08/07 12:44:58;;;;;;;;;;;;;;;17.99;100.00;96846.19;5074513;28;19952;-77
2021/08/07 12:47:28;;;;;;;;;;;;;;;18.79;100.00;96844.41;5072820;28;19925;-77
2021/08/07 12:49:55;;;;;;;;;;;;;;;18.94;100.00;96829.81;5072529;28;20452;-77
2021/08/07 12:52:23;;;;;;;;;;;;;;;19.11;100.00;96831.16;5074056;28;19924;-77
2021/08/07 12:55:07;;;;;;;;;;;;;;;18.57;100.00;96827.66;5074015;28;20338;-77
2021/08/07 12:57:40;;;;;;;;;;;;;;;18.52;100.00;96834.16;5072363;28;19924;-77